sensor_id;sensor_type;location;lat;lon;timestamp;temperature;humidity
35690;DHT22;26977;44.830;-0.674;2022-07-23T00:01:23;15.80;99.90
35690;DHT22;26977;44.830;-0.674;2022-07-23T00:03:50;15.80;99.90
35690;DHT22;26977;44.830;-0.674;2022-07-23T00:06:17;15.90;99.90
35690;DHT22;26977;44.830;-0.674;2022-07-23T00:08:43;15.90;99.90
35690;DHT22;26977;44.830;-0.674;2022-07-23T00:11:09;15.90;99.90
35690;DHT22;26977;44.830;-0.674;2022-07-23T00:13:34;15.80;99.90
35690;DHT22;26977;44.830;-0.674;2022-07-23T00:16:00;15.70;99.90
35690;DHT22;26977;44.830;-0.674;2022-07-23T00:18:26;15.70;99.90
35690;DHT22;26977;44.830;-0.674;2022-07-23T00:20:52;15.70;99.90
35690;DHT22;26977;44.830;-0.674;2022-07-23T00:23:17;15.70;99.90
35690;DHT22;26977;44.830;-0.674;2022-07-23T00:25:43;15.70;99.90
35690;DHT22;26977;44.830;-0.674;2022-07-23T00:28:10;15.70;99.90
35690;DHT22;26977;44.830;-0.674;2022-07-23T00:30:37;15.60;99.90
35690;DHT22;26977;44.830;-0.674;2022-07-23T00:33:05;15.70;99.90
35690;DHT22;26977;44.830;-0.674;2022-07-23T00:35:34;15.70;99.90
35690;DHT22;26977;44.830;-0.674;2022-07-23T00:38:01;15.60;99.90
35690;DHT22;26977;44.830;-0.674;2022-07-23T00:40:30;15.60;99.90
35690;DHT22;26977;44.830;-0.674;2022-07-23T00:42:56;15.60;99.90
35690;DHT22;26977;44.830;-0.674;2022-07-23T00:45:22;15.50;99.90
35690;DHT22;26977;44.830;-0.674;2022-07-23T00:47:48;15.50;99.90
35690;DHT22;26977;44.830;-0.674;2022-07-23T00:50:14;15.50;99.90
35690;DHT22;26977;44.830;-0.674;2022-07-23T00:52:41;15.50;99.90
35690;DHT22;26977;44.830;-0.674;2022-07-23T00:55:08;15.40;99.90
35690;DHT22;26977;44.830;-0.674;2022-07-23T00:57:34;15.50;99.90
35690;DHT22;26977;44.830;-0.674;2022-07-23T01:00:00;15.60;99.90
35690;DHT22;26977;44.830;-0.674;2022-07-23T01:02:27;15.70;99.90
35690;DHT22;26977;44.830;-0.674;2022-07-23T01:04:53;15.80;99.90
35690;DHT22;26977;44.830;-0.674;2022-07-23T01:07:19;15.90;99.90
35690;DHT22;26977;44.830;-0.674;2022-07-23T01:09:45;15.90;99.90
35690;DHT22;26977;44.830;-0.674;2022-07-23T01:12:12;15.80;99.90
35690;DHT22;26977;44.830;-0.674;2022-07-23T01:14:38;15.80;99.90
35690;DHT22;26977;44.830;-0.674;2022-07-23T01:17:03;15.80;99.90
35690;DHT22;26977;44.830;-0.674;2022-07-23T01:19:30;15.70;99.90
35690;DHT22;26977;44.830;-0.674;2022-07-23T01:21:57;15.60;99.90
35690;DHT22;26977;44.830;-0.674;2022-07-23T01:24:24;15.60;99.90
35690;DHT22;26977;44.830;-0.674;2022-07-23T01:26:49;15.70;99.90
35690;DHT22;26977;44.830;-0.674;2022-07-23T01:29:16;15.60;99.90
35690;DHT22;26977;44.830;-0.674;2022-07-23T01:31:43;15.60;99.90
35690;DHT22;26977;44.830;-0.674;2022-07-23T01:34:09;15.50;99.90
35690;DHT22;26977;44.830;-0.674;2022-07-23T01:36:35;15.50;99.90
35690;DHT22;26977;44.830;-0.674;2022-07-23T01:39:03;15.50;99.90
35690;DHT22;26977;44.830;-0.674;2022-07-23T01:41:29;15.50;99.90
35690;DHT22;26977;44.830;-0.674;2022-07-23T01:43:54;15.50;99.90
35690;DHT22;26977;44.830;-0.674;2022-07-23T01:46:20;15.40;99.90
35690;DHT22;26977;44.830;-0.674;2022-07-23T01:48:46;15.40;99.90
35690;DHT22;26977;44.830;-0.674;2022-07-23T01:51:12;15.40;99.90
35690;DHT22;26977;44.830;-0.674;2022-07-23T01:53:37;15.40;99.90
35690;DHT22;26977;44.830;-0.674;2022-07-23T01:56:03;15.40;99.90
35690;DHT22;26977;44.830;-0.674;2022-07-23T01:58:29;15.40;99.90
35690;DHT22;26977;44.830;-0.674;2022-07-23T02:00:55;15.40;99.90
35690;DHT22;26977;44.830;-0.674;2022-07-23T02:03:21;15.30;99.90
35690;DHT22;26977;44.830;-0.674;2022-07-23T02:05:47;15.30;99.90
35690;DHT22;26977;44.830;-0.674;2022-07-23T02:08:13;15.20;99.90
35690;DHT22;26977;44.830;-0.674;2022-07-23T02:10:39;15.20;99.90
35690;DHT22;26977;44.830;-0.674;2022-07-23T02:13:04;15.20;99.90
35690;DHT22;26977;44.830;-0.674;2022-07-23T02:15:30;15.10;99.90
35690;DHT22;26977;44.830;-0.674;2022-07-23T02:17:56;15.20;99.90
35690;DHT22;26977;44.830;-0.674;2022-07-23T02:20:22;15.20;99.90
35690;DHT22;26977;44.830;-0.674;2022-07-23T02:22:48;15.20;99.90
35690;DHT22;26977;44.830;-0.674;2022-07-23T02:25:14;15.20;99.90
35690;DHT22;26977;44.830;-0.674;2022-07-23T02:27:39;15.10;99.90
35690;DHT22;26977;44.830;-0.674;2022-07-23T02:30:06;15.10;99.90
35690;DHT22;26977;44.830;-0.674;2022-07-23T02:32:32;15.10;99.90
35690;DHT22;26977;44.830;-0.674;2022-07-23T02:34:57;15.00;99.90
35690;DHT22;26977;44.830;-0.674;2022-07-23T02:37:23;15.00;99.90
35690;DHT22;26977;44.830;-0.674;2022-07-23T02:39:49;14.90;99.90
35690;DHT22;26977;44.830;-0.674;2022-07-23T02:42:15;14.90;99.90
35690;DHT22;26977;44.830;-0.674;2022-07-23T02:44:41;14.90;99.90
35690;DHT22;26977;44.830;-0.674;2022-07-23T02:47:07;14.90;99.90
35690;DHT22;26977;44.830;-0.674;2022-07-23T02:49:33;14.90;99.90
35690;DHT22;26977;44.830;-0.674;2022-07-23T02:51:59;14.90;99.90
35690;DHT22;26977;44.830;-0.674;2022-07-23T02:54:25;14.90;99.90
35690;DHT22;26977;44.830;-0.674;2022-07-23T02:56:50;14.90;99.90
35690;DHT22;26977;44.830;-0.674;2022-07-23T02:59:17;14.90;99.90
35690;DHT22;26977;44.830;-0.674;2022-07-23T03:01:42;14.90;99.90
35690;DHT22;26977;44.830;-0.674;2022-07-23T03:04:08;14.90;99.90
35690;DHT22;26977;44.830;-0.674;2022-07-23T03:06:34;14.90;99.90
35690;DHT22;26977;44.830;-0.674;2022-07-23T03:08:59;15.00;99.90
35690;DHT22;26977;44.830;-0.674;2022-07-23T03:11:25;14.90;99.90
35690;DHT22;26977;44.830;-0.674;2022-07-23T03:13:51;14.90;99.90
35690;DHT22;26977;44.830;-0.674;2022-07-23T03:16:16;14.90;99.90
35690;DHT22;26977;44.830;-0.674;2022-07-23T03:18:42;14.90;99.90
35690;DHT22;26977;44.830;-0.674;2022-07-23T03:21:08;14.80;99.90
35690;DHT22;26977;44.830;-0.674;2022-07-23T03:23:34;14.70;99.90
35690;DHT22;26977;44.830;-0.674;2022-07-23T03:25:59;14.70;99.90
35690;DHT22;26977;44.830;-0.674;2022-07-23T03:28:25;14.80;99.90
35690;DHT22;26977;44.830;-0.674;2022-07-23T03:30:51;14.60;99.90
35690;DHT22;26977;44.830;-0.674;2022-07-23T03:33:18;14.60;99.90
35690;DHT22;26977;44.830;-0.674;2022-07-23T03:35:45;14.60;99.90
35690;DHT22;26977;44.830;-0.674;2022-07-23T03:38:11;14.60;99.90
35690;DHT22;26977;44.830;-0.674;2022-07-23T03:40:36;14.60;99.90
35690;DHT22;26977;44.830;-0.674;2022-07-23T03:43:02;14.60;99.90
35690;DHT22;26977;44.830;-0.674;2022-07-23T03:45:28;14.60;99.90
35690;DHT22;26977;44.830;-0.674;2022-07-23T03:47:54;14.60;99.90
35690;DHT22;26977;44.830;-0.674;2022-07-23T03:50:21;14.60;99.90
35690;DHT22;26977;44.830;-0.674;2022-07-23T03:52:47;14.60;99.90
35690;DHT22;26977;44.830;-0.674;2022-07-23T03:55:12;14.60;99.90
35690;DHT22;26977;44.830;-0.674;2022-07-23T03:57:38;14.60;99.90
35690;DHT22;26977;44.830;-0.674;2022-07-23T04:00:05;14.60;99.90
35690;DHT22;26977;44.830;-0.674;2022-07-23T04:02:32;14.50;99.90
35690;DHT22;26977;44.830;-0.674;2022-07-23T04:04:58;14.30;99.90
35690;DHT22;26977;44.830;-0.674;2022-07-23T04:07:24;14.20;99.90
35690;DHT22;26977;44.830;-0.674;2022-07-23T04:09:50;14.20;99.90
35690;DHT22;26977;44.830;-0.674;2022-07-23T04:12:16;14.20;99.90
35690;DHT22;26977;44.830;-0.674;2022-07-23T04:14:42;14.20;99.90
35690;DHT22;26977;44.830;-0.674;2022-07-23T04:17:07;14.10;99.90
35690;DHT22;26977;44.830;-0.674;2022-07-23T04:19:33;14.10;99.90
35690;DHT22;26977;44.830;-0.674;2022-07-23T04:22:01;13.90;99.90
35690;DHT22;26977;44.830;-0.674;2022-07-23T04:24:26;13.90;99.90
35690;DHT22;26977;44.830;-0.674;2022-07-23T04:26:52;13.80;99.90
35690;DHT22;26977;44.830;-0.674;2022-07-23T04:29:18;14.00;99.90
35690;DHT22;26977;44.830;-0.674;2022-07-23T04:31:44;14.20;99.90
35690;DHT22;26977;44.830;-0.674;2022-07-23T04:34:09;14.40;99.90
35690;DHT22;26977;44.830;-0.674;2022-07-23T04:36:35;14.50;99.90
35690;DHT22;26977;44.830;-0.674;2022-07-23T04:39:01;14.50;99.90
35690;DHT22;26977;44.830;-0.674;2022-07-23T04:41:26;14.50;99.90
35690;DHT22;26977;44.830;-0.674;2022-07-23T04:43:52;14.50;99.90
35690;DHT22;26977;44.830;-0.674;2022-07-23T04:46:18;14.40;99.90
35690;DHT22;26977;44.830;-0.674;2022-07-23T04:48:43;14.50;99.90
35690;DHT22;26977;44.830;-0.674;2022-07-23T04:51:09;14.60;99.90
35690;DHT22;26977;44.830;-0.674;2022-07-23T04:53:37;14.80;99.90
35690;DHT22;26977;44.830;-0.674;2022-07-23T04:56:03;14.90;99.90
35690;DHT22;26977;44.830;-0.674;2022-07-23T04:58:29;14.90;99.90
35690;DHT22;26977;44.830;-0.674;2022-07-23T05:00:57;15.00;99.90
35690;DHT22;26977;44.830;-0.674;2022-07-23T05:03:23;15.00;99.90
35690;DHT22;26977;44.830;-0.674;2022-07-23T05:05:49;15.10;99.90
35690;DHT22;26977;44.830;-0.674;2022-07-23T05:08:15;15.20;99.90
35690;DHT22;26977;44.830;-0.674;2022-07-23T05:10:41;15.30;99.90
35690;DHT22;26977;44.830;-0.674;2022-07-23T05:13:06;15.40;99.90
35690;DHT22;26977;44.830;-0.674;2022-07-23T05:15:32;15.50;99.90
35690;DHT22;26977;44.830;-0.674;2022-07-23T05:17:58;15.60;99.90
35690;DHT22;26977;44.830;-0.674;2022-07-23T05:20:24;15.70;99.90
35690;DHT22;26977;44.830;-0.674;2022-07-23T05:22:49;15.80;99.90
35690;DHT22;26977;44.830;-0.674;2022-07-23T05:25:15;15.90;99.90
35690;DHT22;26977;44.830;-0.674;2022-07-23T05:27:41;15.90;99.90
35690;DHT22;26977;44.830;-0.674;2022-07-23T05:30:07;16.00;99.90
35690;DHT22;26977;44.830;-0.674;2022-07-23T05:32:33;16.10;99.90
35690;DHT22;26977;44.830;-0.674;2022-07-23T05:34:58;16.20;99.90
35690;DHT22;26977;44.830;-0.674;2022-07-23T05:37:24;16.30;99.90
35690;DHT22;26977;44.830;-0.674;2022-07-23T05:39:50;16.40;99.90
35690;DHT22;26977;44.830;-0.674;2022-07-23T05:42:16;16.50;99.90
35690;DHT22;26977;44.830;-0.674;2022-07-23T05:44:42;16.50;99.90
35690;DHT22;26977;44.830;-0.674;2022-07-23T05:47:07;16.60;99.90
35690;DHT22;26977;44.830;-0.674;2022-07-23T05:49:33;16.80;99.90
35690;DHT22;26977;44.830;-0.674;2022-07-23T05:52:02;16.90;99.90
35690;DHT22;26977;44.830;-0.674;2022-07-23T05:54:28;17.00;99.90
35690;DHT22;26977;44.830;-0.674;2022-07-23T05:56:54;17.10;99.90
35690;DHT22;26977;44.830;-0.674;2022-07-23T05:59:19;17.30;99.90
35690;DHT22;26977;44.830;-0.674;2022-07-23T06:01:45;17.30;99.90
35690;DHT22;26977;44.830;-0.674;2022-07-23T06:04:11;17.50;99.90
35690;DHT22;26977;44.830;-0.674;2022-07-23T06:06:36;17.60;99.90
35690;DHT22;26977;44.830;-0.674;2022-07-23T06:09:02;17.70;99.90
35690;DHT22;26977;44.830;-0.674;2022-07-23T06:11:28;17.70;99.90
35690;DHT22;26977;44.830;-0.674;2022-07-23T06:13:53;17.80;99.90
35690;DHT22;26977;44.830;-0.674;2022-07-23T06:16:19;18.00;99.90
35690;DHT22;26977;44.830;-0.674;2022-07-23T06:18:45;18.00;99.90
35690;DHT22;26977;44.830;-0.674;2022-07-23T06:21:10;18.10;99.90
35690;DHT22;26977;44.830;-0.674;2022-07-23T06:23:36;18.20;99.90
35690;DHT22;26977;44.830;-0.674;2022-07-23T06:26:01;18.30;99.90
35690;DHT22;26977;44.830;-0.674;2022-07-23T06:28:27;18.30;99.90
35690;DHT22;26977;44.830;-0.674;2022-07-23T06:30:53;18.40;99.90
35690;DHT22;26977;44.830;-0.674;2022-07-23T06:33:18;18.40;99.90
35690;DHT22;26977;44.830;-0.674;2022-07-23T06:35:44;18.50;99.90
35690;DHT22;26977;44.830;-0.674;2022-07-23T06:38:10;18.60;99.90
35690;DHT22;26977;44.830;-0.674;2022-07-23T06:40:35;18.60;99.90
35690;DHT22;26977;44.830;-0.674;2022-07-23T06:43:01;18.80;99.90
35690;DHT22;26977;44.830;-0.674;2022-07-23T06:45:27;18.90;99.90
35690;DHT22;26977;44.830;-0.674;2022-07-23T06:47:53;19.10;99.90
35690;DHT22;26977;44.830;-0.674;2022-07-23T06:50:18;19.20;99.90
35690;DHT22;26977;44.830;-0.674;2022-07-23T06:52:44;19.40;99.90
35690;DHT22;26977;44.830;-0.674;2022-07-23T06:55:10;19.60;99.90
35690;DHT22;26977;44.830;-0.674;2022-07-23T06:57:36;19.80;99.90
35690;DHT22;26977;44.830;-0.674;2022-07-23T07:00:03;20.00;99.90
35690;DHT22;26977;44.830;-0.674;2022-07-23T07:02:28;20.20;99.90
35690;DHT22;26977;44.830;-0.674;2022-07-23T07:04:54;20.30;99.90
35690;DHT22;26977;44.830;-0.674;2022-07-23T07:07:21;20.30;99.90
35690;DHT22;26977;44.830;-0.674;2022-07-23T07:09:47;20.20;99.90
35690;DHT22;26977;44.830;-0.674;2022-07-23T07:12:13;20.30;99.90
35690;DHT22;26977;44.830;-0.674;2022-07-23T07:14:38;20.40;99.90
35690;DHT22;26977;44.830;-0.674;2022-07-23T07:17:04;20.40;99.90
35690;DHT22;26977;44.830;-0.674;2022-07-23T07:19:30;20.60;99.90
35690;DHT22;26977;44.830;-0.674;2022-07-23T07:21:55;20.40;99.90
35690;DHT22;26977;44.830;-0.674;2022-07-23T07:24:21;20.20;99.90
35690;DHT22;26977;44.830;-0.674;2022-07-23T07:26:47;20.40;99.90
35690;DHT22;26977;44.830;-0.674;2022-07-23T07:29:12;20.50;99.90
35690;DHT22;26977;44.830;-0.674;2022-07-23T07:31:38;20.70;99.90
35690;DHT22;26977;44.830;-0.674;2022-07-23T07:34:04;20.90;99.90
35690;DHT22;26977;44.830;-0.674;2022-07-23T07:36:29;21.00;99.90
35690;DHT22;26977;44.830;-0.674;2022-07-23T07:38:55;20.90;99.90
35690;DHT22;26977;44.830;-0.674;2022-07-23T07:41:21;21.00;99.90
35690;DHT22;26977;44.830;-0.674;2022-07-23T07:43:51;21.20;99.90
35690;DHT22;26977;44.830;-0.674;2022-07-23T07:46:17;21.20;99.90
35690;DHT22;26977;44.830;-0.674;2022-07-23T07:48:43;21.30;99.90
35690;DHT22;26977;44.830;-0.674;2022-07-23T07:51:09;21.30;99.90
35690;DHT22;26977;44.830;-0.674;2022-07-23T07:53:34;21.20;99.90
35690;DHT22;26977;44.830;-0.674;2022-07-23T07:56:00;21.60;99.90
35690;DHT22;26977;44.830;-0.674;2022-07-23T07:58:26;21.90;99.90
35690;DHT22;26977;44.830;-0.674;2022-07-23T08:00:51;21.90;99.90
35690;DHT22;26977;44.830;-0.674;2022-07-23T08:03:17;21.80;99.90
35690;DHT22;26977;44.830;-0.674;2022-07-23T08:05:43;21.80;99.90
35690;DHT22;26977;44.830;-0.674;2022-07-23T08:08:09;21.70;99.90
35690;DHT22;26977;44.830;-0.674;2022-07-23T08:10:40;21.60;99.90
35690;DHT22;26977;44.830;-0.674;2022-07-23T08:13:06;21.50;99.90
35690;DHT22;26977;44.830;-0.674;2022-07-23T08:15:32;21.50;99.90
35690;DHT22;26977;44.830;-0.674;2022-07-23T08:17:59;21.50;99.90
35690;DHT22;26977;44.830;-0.674;2022-07-23T08:20:25;21.40;99.90
35690;DHT22;26977;44.830;-0.674;2022-07-23T08:22:54;21.70;99.60
35690;DHT22;26977;44.830;-0.674;2022-07-23T08:25:32;21.90;99.10
35690;DHT22;26977;44.830;-0.674;2022-07-23T08:27:59;22.10;98.10
35690;DHT22;26977;44.830;-0.674;2022-07-23T08:30:26;22.20;98.20
35690;DHT22;26977;44.830;-0.674;2022-07-23T08:33:00;22.10;98.00
35690;DHT22;26977;44.830;-0.674;2022-07-23T08:35:34;22.30;97.60
35690;DHT22;26977;44.830;-0.674;2022-07-23T08:38:03;22.10;97.90
35690;DHT22;26977;44.830;-0.674;2022-07-23T08:40:32;22.30;97.80
35690;DHT22;26977;44.830;-0.674;2022-07-23T08:42:58;22.80;96.80
35690;DHT22;26977;44.830;-0.674;2022-07-23T08:45:25;23.00;95.60
35690;DHT22;26977;44.830;-0.674;2022-07-23T08:47:53;23.30;95.10
35690;DHT22;26977;44.830;-0.674;2022-07-23T08:50:20;23.40;94.20
35690;DHT22;26977;44.830;-0.674;2022-07-23T08:52:48;23.10;94.30
35690;DHT22;26977;44.830;-0.674;2022-07-23T08:55:16;23.00;94.70
35690;DHT22;26977;44.830;-0.674;2022-07-23T08:57:43;23.00;94.80
35690;DHT22;26977;44.830;-0.674;2022-07-23T09:00:09;23.00;94.80
35690;DHT22;26977;44.830;-0.674;2022-07-23T09:02:40;23.20;94.40
35690;DHT22;26977;44.830;-0.674;2022-07-23T09:05:07;23.20;94.00
35690;DHT22;26977;44.830;-0.674;2022-07-23T09:07:33;23.10;94.30
35690;DHT22;26977;44.830;-0.674;2022-07-23T09:10:10;23.50;93.70
35690;DHT22;26977;44.830;-0.674;2022-07-23T09:12:37;24.10;93.30
35690;DHT22;26977;44.830;-0.674;2022-07-23T09:15:07;24.60;91.60
35690;DHT22;26977;44.830;-0.674;2022-07-23T09:17:39;24.90;91.10
35690;DHT22;26977;44.830;-0.674;2022-07-23T09:20:09;25.40;90.80
35690;DHT22;26977;44.830;-0.674;2022-07-23T09:22:35;25.00;90.30
35690;DHT22;26977;44.830;-0.674;2022-07-23T09:25:15;24.80;90.30
35690;DHT22;26977;44.830;-0.674;2022-07-23T09:30:22;23.70;92.00
35690;DHT22;26977;44.830;-0.674;2022-07-23T09:33:14;23.80;91.70
35690;DHT22;26977;44.830;-0.674;2022-07-23T09:35:48;24.10;91.30
35690;DHT22;26977;44.830;-0.674;2022-07-23T09:38:15;24.30;91.00
35690;DHT22;26977;44.830;-0.674;2022-07-23T09:40:41;24.70;90.80
35690;DHT22;26977;44.830;-0.674;2022-07-23T09:43:06;25.10;90.30
35690;DHT22;26977;44.830;-0.674;2022-07-23T09:45:32;25.40;89.10
35690;DHT22;26977;44.830;-0.674;2022-07-23T09:48:14;25.40;88.90
35690;DHT22;26977;44.830;-0.674;2022-07-23T09:50:41;25.20;89.00
35690;DHT22;26977;44.830;-0.674;2022-07-23T09:53:07;24.90;88.70
35690;DHT22;26977;44.830;-0.674;2022-07-23T09:55:35;24.70;88.70
35690;DHT22;26977;44.830;-0.674;2022-07-23T09:58:02;24.80;88.90
35690;DHT22;26977;44.830;-0.674;2022-07-23T10:00:30;24.80;89.30
35690;DHT22;26977;44.830;-0.674;2022-07-23T10:02:57;25.00;88.90
35690;DHT22;26977;44.830;-0.674;2022-07-23T10:05:24;25.20;87.60
35690;DHT22;26977;44.830;-0.674;2022-07-23T10:07:50;24.80;88.40
35690;DHT22;26977;44.830;-0.674;2022-07-23T10:10:17;25.30;87.80
35690;DHT22;26977;44.830;-0.674;2022-07-23T10:12:46;25.60;86.30
35690;DHT22;26977;44.830;-0.674;2022-07-23T10:15:21;25.50;86.10
35690;DHT22;26977;44.830;-0.674;2022-07-23T10:17:48;26.20;85.20
35690;DHT22;26977;44.830;-0.674;2022-07-23T10:20:13;27.00;83.50
35690;DHT22;26977;44.830;-0.674;2022-07-23T10:25:45;27.80;79.50
35690;DHT22;26977;44.830;-0.674;2022-07-23T10:34:07;27.20;80.70
35690;DHT22;26977;44.830;-0.674;2022-07-23T10:40:18;26.80;79.60
35690;DHT22;26977;44.830;-0.674;2022-07-23T10:42:48;27.00;80.10
35690;DHT22;26977;44.830;-0.674;2022-07-23T10:45:31;27.30;77.80
35690;DHT22;26977;44.830;-0.674;2022-07-23T10:50:38;27.20;76.50
35690;DHT22;26977;44.830;-0.674;2022-07-23T10:53:08;27.10;76.10
35690;DHT22;26977;44.830;-0.674;2022-07-23T10:58:02;26.30;78.80
35690;DHT22;26977;44.830;-0.674;2022-07-23T11:00:30;26.60;75.50
35690;DHT22;26977;44.830;-0.674;2022-07-23T11:02:58;26.50;77.50
35690;DHT22;26977;44.830;-0.674;2022-07-23T11:05:45;26.70;77.30
35690;DHT22;26977;44.830;-0.674;2022-07-23T11:08:17;27.50;76.90
35690;DHT22;26977;44.830;-0.674;2022-07-23T11:10:53;28.00;75.30
35690;DHT22;26977;44.830;-0.674;2022-07-23T11:34:49;28.80;69.40
35690;DHT22;26977;44.830;-0.674;2022-07-23T11:40:01;29.20;66.80
35690;DHT22;26977;44.830;-0.674;2022-07-23T11:42:28;29.20;69.20
35690;DHT22;26977;44.830;-0.674;2022-07-23T11:44:53;29.50;69.10
35690;DHT22;26977;44.830;-0.674;2022-07-23T11:47:24;29.40;69.10
35690;DHT22;26977;44.830;-0.674;2022-07-23T11:49:55;29.40;68.10
35690;DHT22;26977;44.830;-0.674;2022-07-23T11:52:21;29.20;69.20
35690;DHT22;26977;44.830;-0.674;2022-07-23T11:54:58;28.70;69.90
35690;DHT22;26977;44.830;-0.674;2022-07-23T11:57:29;29.20;69.60
35690;DHT22;26977;44.830;-0.674;2022-07-23T12:00:07;29.40;68.40
35690;DHT22;26977;44.830;-0.674;2022-07-23T12:02:34;29.40;69.30
35690;DHT22;26977;44.830;-0.674;2022-07-23T12:05:00;29.70;67.90
35690;DHT22;26977;44.830;-0.674;2022-07-23T12:07:37;29.20;68.20
35690;DHT22;26977;44.830;-0.674;2022-07-23T12:13:07;28.90;69.20
35690;DHT22;26977;44.830;-0.674;2022-07-23T12:18:11;29.20;68.70
35690;DHT22;26977;44.830;-0.674;2022-07-23T12:20:45;29.60;67.50
35690;DHT22;26977;44.830;-0.674;2022-07-23T12:23:14;28.70;67.90
35690;DHT22;26977;44.830;-0.674;2022-07-23T12:25:42;28.70;68.70
35690;DHT22;26977;44.830;-0.674;2022-07-23T12:28:15;28.90;69.30
35690;DHT22;26977;44.830;-0.674;2022-07-23T12:30:51;29.60;67.90
35690;DHT22;26977;44.830;-0.674;2022-07-23T12:33:31;30.10;66.10
35690;DHT22;26977;44.830;-0.674;2022-07-23T12:36:00;30.30;66.20
35690;DHT22;26977;44.830;-0.674;2022-07-23T12:38:27;30.70;65.80
35690;DHT22;26977;44.830;-0.674;2022-07-23T12:40:58;30.80;65.00
35690;DHT22;26977;44.830;-0.674;2022-07-23T12:43:33;30.90;65.00
35690;DHT22;26977;44.830;-0.674;2022-07-23T12:46:06;30.60;64.80
35690;DHT22;26977;44.830;-0.674;2022-07-23T12:51:14;29.70;66.60
35690;DHT22;26977;44.830;-0.674;2022-07-23T12:53:49;29.50;67.70
35690;DHT22;26977;44.830;-0.674;2022-07-23T12:56:16;29.30;67.50
35690;DHT22;26977;44.830;-0.674;2022-07-23T12:58:55;28.90;67.40
35690;DHT22;26977;44.830;-0.674;2022-07-23T13:06:37;32.70;62.70
35690;DHT22;26977;44.830;-0.674;2022-07-23T13:09:05;33.50;61.30
35690;DHT22;26977;44.830;-0.674;2022-07-23T13:11:32;35.00;60.30
35690;DHT22;26977;44.830;-0.674;2022-07-23T13:13:57;35.80;58.70
35690;DHT22;26977;44.830;-0.674;2022-07-23T13:16:26;36.10;57.80
35690;DHT22;26977;44.830;-0.674;2022-07-23T13:18:52;36.40;57.60
35690;DHT22;26977;44.830;-0.674;2022-07-23T13:21:18;36.60;57.00
35690;DHT22;26977;44.830;-0.674;2022-07-23T13:23:44;36.70;56.80
35690;DHT22;26977;44.830;-0.674;2022-07-23T13:26:09;37.10;56.80
35690;DHT22;26977;44.830;-0.674;2022-07-23T13:28:35;37.00;55.70
35690;DHT22;26977;44.830;-0.674;2022-07-23T13:31:01;37.30;55.80
35690;DHT22;26977;44.830;-0.674;2022-07-23T13:33:26;37.30;56.10
35690;DHT22;26977;44.830;-0.674;2022-07-23T13:35:52;37.80;55.50
35690;DHT22;26977;44.830;-0.674;2022-07-23T13:38:20;38.10;55.50
35690;DHT22;26977;44.830;-0.674;2022-07-23T13:40:47;38.40;54.50
35690;DHT22;26977;44.830;-0.674;2022-07-23T13:43:17;38.50;54.70
35690;DHT22;26977;44.830;-0.674;2022-07-23T13:45:43;37.80;54.10
35690;DHT22;26977;44.830;-0.674;2022-07-23T13:48:10;37.10;55.40
35690;DHT22;26977;44.830;-0.674;2022-07-23T13:50:37;37.50;55.60
35690;DHT22;26977;44.830;-0.674;2022-07-23T13:53:04;38.10;54.70
35690;DHT22;26977;44.830;-0.674;2022-07-23T13:55:30;38.10;54.60
35690;DHT22;26977;44.830;-0.674;2022-07-23T13:57:56;38.20;54.60
35690;DHT22;26977;44.830;-0.674;2022-07-23T14:00:22;38.60;54.40
35690;DHT22;26977;44.830;-0.674;2022-07-23T14:02:47;39.30;54.30
35690;DHT22;26977;44.830;-0.674;2022-07-23T14:05:14;37.80;54.60
35690;DHT22;26977;44.830;-0.674;2022-07-23T14:07:40;35.70;57.20
35690;DHT22;26977;44.830;-0.674;2022-07-23T14:10:08;36.30;56.70
35690;DHT22;26977;44.830;-0.674;2022-07-23T14:12:34;37.80;55.60
35690;DHT22;26977;44.830;-0.674;2022-07-23T14:15:00;38.30;54.50
35690;DHT22;26977;44.830;-0.674;2022-07-23T14:17:26;39.20;54.20
35690;DHT22;26977;44.830;-0.674;2022-07-23T14:19:51;39.60;53.30
35690;DHT22;26977;44.830;-0.674;2022-07-23T14:22:17;39.80;52.70
35690;DHT22;26977;44.830;-0.674;2022-07-23T14:24:43;37.60;53.60
35690;DHT22;26977;44.830;-0.674;2022-07-23T14:27:09;35.40;56.10
35690;DHT22;26977;44.830;-0.674;2022-07-23T14:29:35;34.60;57.50
35690;DHT22;26977;44.830;-0.674;2022-07-23T14:32:01;35.50;56.50
35690;DHT22;26977;44.830;-0.674;2022-07-23T14:34:27;36.00;55.60
35690;DHT22;26977;44.830;-0.674;2022-07-23T14:36:52;36.60;55.00
35690;DHT22;26977;44.830;-0.674;2022-07-23T14:39:18;37.20;54.50
35690;DHT22;26977;44.830;-0.674;2022-07-23T14:41:44;36.70;54.60
35690;DHT22;26977;44.830;-0.674;2022-07-23T14:44:10;36.40;54.70
35690;DHT22;26977;44.830;-0.674;2022-07-23T14:46:36;36.10;55.20
35690;DHT22;26977;44.830;-0.674;2022-07-23T14:49:02;35.20;56.30
35690;DHT22;26977;44.830;-0.674;2022-07-23T14:51:28;35.30;56.30
35690;DHT22;26977;44.830;-0.674;2022-07-23T14:53:53;35.80;54.70
35690;DHT22;26977;44.830;-0.674;2022-07-23T14:56:19;35.40;56.00
35690;DHT22;26977;44.830;-0.674;2022-07-23T14:58:45;38.00;54.50
35690;DHT22;26977;44.830;-0.674;2022-07-23T15:01:11;39.30;52.60
35690;DHT22;26977;44.830;-0.674;2022-07-23T15:03:37;40.30;51.60
35690;DHT22;26977;44.830;-0.674;2022-07-23T15:06:03;40.50;51.20
35690;DHT22;26977;44.830;-0.674;2022-07-23T15:08:29;41.60;51.10
35690;DHT22;26977;44.830;-0.674;2022-07-23T15:10:55;41.60;50.00
35690;DHT22;26977;44.830;-0.674;2022-07-23T15:13:21;41.40;50.10
35690;DHT22;26977;44.830;-0.674;2022-07-23T15:15:47;40.50;50.50
35690;DHT22;26977;44.830;-0.674;2022-07-23T15:18:12;39.50;51.30
35690;DHT22;26977;44.830;-0.674;2022-07-23T15:20:38;39.00;51.60
35690;DHT22;26977;44.830;-0.674;2022-07-23T15:23:05;40.00;51.30
35690;DHT22;26977;44.830;-0.674;2022-07-23T15:25:31;40.10;50.60
35690;DHT22;26977;44.830;-0.674;2022-07-23T15:27:57;40.70;50.70
35690;DHT22;26977;44.830;-0.674;2022-07-23T15:30:27;40.90;50.50
35690;DHT22;26977;44.830;-0.674;2022-07-23T15:32:53;41.20;50.20
35690;DHT22;26977;44.830;-0.674;2022-07-23T15:35:19;39.60;50.50
35690;DHT22;26977;44.830;-0.674;2022-07-23T15:37:46;38.50;52.10
35690;DHT22;26977;44.830;-0.674;2022-07-23T15:40:12;38.00;52.40
35690;DHT22;26977;44.830;-0.674;2022-07-23T15:42:38;39.00;51.70
35690;DHT22;26977;44.830;-0.674;2022-07-23T15:45:04;39.40;51.50
35690;DHT22;26977;44.830;-0.674;2022-07-23T15:47:30;40.10;51.00
35690;DHT22;26977;44.830;-0.674;2022-07-23T15:49:56;39.30;51.20
35690;DHT22;26977;44.830;-0.674;2022-07-23T15:52:22;39.50;51.60
35690;DHT22;26977;44.830;-0.674;2022-07-23T15:54:48;38.60;51.90
35690;DHT22;26977;44.830;-0.674;2022-07-23T15:57:14;39.00;51.60
35690;DHT22;26977;44.830;-0.674;2022-07-23T15:59:40;38.20;51.70
35690;DHT22;26977;44.830;-0.674;2022-07-23T16:02:05;37.00;52.10
35690;DHT22;26977;44.830;-0.674;2022-07-23T16:04:32;34.90;54.50
35690;DHT22;26977;44.830;-0.674;2022-07-23T16:06:58;34.70;55.40
35690;DHT22;26977;44.830;-0.674;2022-07-23T16:09:24;36.80;53.80
35690;DHT22;26977;44.830;-0.674;2022-07-23T16:11:50;38.20;52.30